sensor_id;sensor_type;location;lat;lon;timestamp;temperature;humidity
26107;DHT22;13866;50.748;12.630;2023-12-04T00:01:31;-8.20;99.90
26107;DHT22;13866;50.748;12.630;2023-12-04T00:03:57;-8.30;99.90
26107;DHT22;13866;50.748;12.630;2023-12-04T00:06:23;-8.30;99.90
26107;DHT22;13866;50.748;12.630;2023-12-04T00:08:49;-8.30;99.90
26107;DHT22;13866;50.748;12.630;2023-12-04T00:11:14;-8.30;99.90
26107;DHT22;13866;50.748;12.630;2023-12-04T00:13:40;-8.30;99.90
26107;DHT22;13866;50.748;12.630;2023-12-04T00:16:06;-8.30;99.90
26107;DHT22;13866;50.748;12.630;2023-12-04T00:18:32;-8.30;99.90
26107;DHT22;13866;50.748;12.630;2023-12-04T00:20:57;-8.30;99.90
26107;DHT22;13866;50.748;12.630;2023-12-04T00:23:23;-8.20;99.90
26107;DHT22;13866;50.748;12.630;2023-12-04T00:25:48;-8.30;99.90
26107;DHT22;13866;50.748;12.630;2023-12-04T00:28:14;-8.30;99.90
26107;DHT22;13866;50.748;12.630;2023-12-04T00:30:39;-8.20;99.90
26107;DHT22;13866;50.748;12.630;2023-12-04T00:33:05;-8.20;99.90
26107;DHT22;13866;50.748;12.630;2023-12-04T00:35:30;-8.30;99.90
26107;DHT22;13866;50.748;12.630;2023-12-04T00:37:56;-8.30;99.90
26107;DHT22;13866;50.748;12.630;2023-12-04T00:40:21;-8.30;99.90
26107;DHT22;13866;50.748;12.630;2023-12-04T00:42:47;-8.30;99.90
26107;DHT22;13866;50.748;12.630;2023-12-04T00:45:12;-8.20;99.90
26107;DHT22;13866;50.748;12.630;2023-12-04T00:47:38;-8.20;99.90
26107;DHT22;13866;50.748;12.630;2023-12-04T00:50:03;-8.20;99.90
26107;DHT22;13866;50.748;12.630;2023-12-04T00:52:29;-8.20;99.90
26107;DHT22;13866;50.748;12.630;2023-12-04T00:54:54;-8.10;99.90
26107;DHT22;13866;50.748;12.630;2023-12-04T00:57:20;-8.20;99.90
26107;DHT22;13866;50.748;12.630;2023-12-04T00:59:46;-8.10;99.90
26107;DHT22;13866;50.748;12.630;2023-12-04T01:02:11;-8.00;99.90
26107;DHT22;13866;50.748;12.630;2023-12-04T01:04:40;-8.00;99.90
26107;DHT22;13866;50.748;12.630;2023-12-04T01:07:05;-8.00;99.90
26107;DHT22;13866;50.748;12.630;2023-12-04T01:09:31;-7.90;99.90
26107;DHT22;13866;50.748;12.630;2023-12-04T01:11:56;-7.90;99.90
26107;DHT22;13866;50.748;12.630;2023-12-04T01:14:22;-8.00;99.90
26107;DHT22;13866;50.748;12.630;2023-12-04T01:16:47;-7.90;99.90
26107;DHT22;13866;50.748;12.630;2023-12-04T01:19:13;-8.00;99.90
26107;DHT22;13866;50.748;12.630;2023-12-04T01:21:38;-8.00;99.90
26107;DHT22;13866;50.748;12.630;2023-12-04T01:24:04;-8.00;99.90
26107;DHT22;13866;50.748;12.630;2023-12-04T01:26:30;-8.00;99.90
26107;DHT22;13866;50.748;12.630;2023-12-04T01:28:55;-8.10;99.90
26107;DHT22;13866;50.748;12.630;2023-12-04T01:31:21;-8.00;99.90
26107;DHT22;13866;50.748;12.630;2023-12-04T01:33:46;-8.00;99.90
26107;DHT22;13866;50.748;12.630;2023-12-04T01:36:12;-7.90;99.90
26107;DHT22;13866;50.748;12.630;2023-12-04T01:38:38;-7.90;99.90
26107;DHT22;13866;50.748;12.630;2023-12-04T01:41:03;-7.90;99.90
26107;DHT22;13866;50.748;12.630;2023-12-04T01:43:29;-8.00;99.90
26107;DHT22;13866;50.748;12.630;2023-12-04T01:45:54;-8.00;99.90
26107;DHT22;13866;50.748;12.630;2023-12-04T01:48:20;-8.10;99.90
26107;DHT22;13866;50.748;12.630;2023-12-04T01:50:46;-8.00;99.90
26107;DHT22;13866;50.748;12.630;2023-12-04T01:53:12;-8.00;99.90
26107;DHT22;13866;50.748;12.630;2023-12-04T01:55:38;-8.10;99.90
26107;DHT22;13866;50.748;12.630;2023-12-04T01:58:04;-8.00;99.90
26107;DHT22;13866;50.748;12.630;2023-12-04T02:00:31;-8.00;99.90
26107;DHT22;13866;50.748;12.630;2023-12-04T02:02:57;-7.90;99.90
26107;DHT22;13866;50.748;12.630;2023-12-04T02:05:23;-7.90;99.90
26107;DHT22;13866;50.748;12.630;2023-12-04T02:07:50;-7.90;99.90
26107;DHT22;13866;50.748;12.630;2023-12-04T02:10:15;-7.90;99.90
26107;DHT22;13866;50.748;12.630;2023-12-04T02:12:41;-8.00;99.90
26107;DHT22;13866;50.748;12.630;2023-12-04T02:15:06;-8.00;99.90
26107;DHT22;13866;50.748;12.630;2023-12-04T02:17:32;-7.90;99.90
26107;DHT22;13866;50.748;12.630;2023-12-04T02:19:59;-8.00;99.90
26107;DHT22;13866;50.748;12.630;2023-12-04T02:22:24;-7.80;99.90
26107;DHT22;13866;50.748;12.630;2023-12-04T02:24:50;-7.70;99.90
26107;DHT22;13866;50.748;12.630;2023-12-04T02:27:25;-7.60;99.90
26107;DHT22;13866;50.748;12.630;2023-12-04T02:29:56;-7.60;99.90
26107;DHT22;13866;50.748;12.630;2023-12-04T02:32:23;-7.80;99.90
26107;DHT22;13866;50.748;12.630;2023-12-04T02:34:49;-8.00;99.90
26107;DHT22;13866;50.748;12.630;2023-12-04T02:37:16;-8.00;99.90
26107;DHT22;13866;50.748;12.630;2023-12-04T02:39:43;-8.00;99.90
26107;DHT22;13866;50.748;12.630;2023-12-04T02:42:09;-8.00;99.90
26107;DHT22;13866;50.748;12.630;2023-12-04T02:44:34;-7.90;99.90
26107;DHT22;13866;50.748;12.630;2023-12-04T02:47:00;-8.00;99.90
26107;DHT22;13866;50.748;12.630;2023-12-04T02:49:25;-7.90;99.90
26107;DHT22;13866;50.748;12.630;2023-12-04T02:51:51;-7.90;99.90
26107;DHT22;13866;50.748;12.630;2023-12-04T02:54:16;-7.90;99.90
26107;DHT22;13866;50.748;12.630;2023-12-04T02:56:42;-7.90;99.90
26107;DHT22;13866;50.748;12.630;2023-12-04T02:59:07;-7.90;99.90
26107;DHT22;13866;50.748;12.630;2023-12-04T03:01:33;-8.00;99.90
26107;DHT22;13866;50.748;12.630;2023-12-04T03:03:58;-8.10;99.90
26107;DHT22;13866;50.748;12.630;2023-12-04T03:06:24;-8.10;99.90
26107;DHT22;13866;50.748;12.630;2023-12-04T03:08:49;-8.10;99.90
26107;DHT22;13866;50.748;12.630;2023-12-04T03:11:15;-8.10;99.90
26107;DHT22;13866;50.748;12.630;2023-12-04T03:13:40;-8.20;99.90
26107;DHT22;13866;50.748;12.630;2023-12-04T03:16:06;-8.10;99.90
26107;DHT22;13866;50.748;12.630;2023-12-04T03:18:31;-8.10;99.90
26107;DHT22;13866;50.748;12.630;2023-12-04T03:20:57;-8.00;99.90
26107;DHT22;13866;50.748;12.630;2023-12-04T03:23:22;-8.00;99.90
26107;DHT22;13866;50.748;12.630;2023-12-04T03:25:48;-8.00;99.90
26107;DHT22;13866;50.748;12.630;2023-12-04T03:28:13;-8.00;99.90
26107;DHT22;13866;50.748;12.630;2023-12-04T03:30:41;-8.00;99.90
26107;DHT22;13866;50.748;12.630;2023-12-04T03:33:09;-8.10;99.90
26107;DHT22;13866;50.748;12.630;2023-12-04T03:35:34;-8.10;99.90
26107;DHT22;13866;50.748;12.630;2023-12-04T03:37:59;-8.10;99.90
26107;DHT22;13866;50.748;12.630;2023-12-04T03:40:25;-8.10;99.90
26107;DHT22;13866;50.748;12.630;2023-12-04T03:42:50;-8.20;99.90
26107;DHT22;13866;50.748;12.630;2023-12-04T03:45:16;-8.30;99.90
26107;DHT22;13866;50.748;12.630;2023-12-04T03:47:41;-8.30;99.90
26107;DHT22;13866;50.748;12.630;2023-12-04T03:50:07;-8.20;99.90
26107;DHT22;13866;50.748;12.630;2023-12-04T03:52:32;-8.10;99.90
26107;DHT22;13866;50.748;12.630;2023-12-04T03:54:58;-7.90;99.90
26107;DHT22;13866;50.748;12.630;2023-12-04T03:57:23;-8.00;99.90
26107;DHT22;13866;50.748;12.630;2023-12-04T03:59:49;-8.10;99.90
26107;DHT22;13866;50.748;12.630;2023-12-04T04:02:14;-8.10;99.90
26107;DHT22;13866;50.748;12.630;2023-12-04T04:04:40;-8.00;99.90
26107;DHT22;13866;50.748;12.630;2023-12-04T04:07:05;-7.90;99.90
26107;DHT22;13866;50.748;12.630;2023-12-04T04:09:31;-7.70;99.90
26107;DHT22;13866;50.748;12.630;2023-12-04T04:11:56;-7.60;99.90
26107;DHT22;13866;50.748;12.630;2023-12-04T04:14:21;-7.50;99.90
26107;DHT22;13866;50.748;12.630;2023-12-04T04:16:48;-7.30;99.90
26107;DHT22;13866;50.748;12.630;2023-12-04T04:19:14;-7.30;99.90
26107;DHT22;13866;50.748;12.630;2023-12-04T04:21:40;-7.30;99.90
26107;DHT22;13866;50.748;12.630;2023-12-04T04:24:06;-7.20;99.90
26107;DHT22;13866;50.748;12.630;2023-12-04T04:26:31;-7.10;99.90
26107;DHT22;13866;50.748;12.630;2023-12-04T04:28:57;-7.00;99.90
26107;DHT22;13866;50.748;12.630;2023-12-04T04:31:23;-7.00;99.90
26107;DHT22;13866;50.748;12.630;2023-12-04T04:33:48;-7.00;99.90
26107;DHT22;13866;50.748;12.630;2023-12-04T04:36:14;-6.90;99.90
26107;DHT22;13866;50.748;12.630;2023-12-04T04:38:39;-6.90;99.90
26107;DHT22;13866;50.748;12.630;2023-12-04T04:41:05;-6.80;99.90
26107;DHT22;13866;50.748;12.630;2023-12-04T04:43:31;-6.80;99.90
26107;DHT22;13866;50.748;12.630;2023-12-04T04:45:56;-6.70;99.90
26107;DHT22;13866;50.748;12.630;2023-12-04T04:48:22;-6.70;99.90
26107;DHT22;13866;50.748;12.630;2023-12-04T04:50:47;-6.70;99.90
26107;DHT22;13866;50.748;12.630;2023-12-04T04:53:13;-6.70;99.90
26107;DHT22;13866;50.748;12.630;2023-12-04T04:55:38;-6.80;99.90
26107;DHT22;13866;50.748;12.630;2023-12-04T04:58:04;-6.70;99.90
26107;DHT22;13866;50.748;12.630;2023-12-04T05:00:29;-6.70;99.90
26107;DHT22;13866;50.748;12.630;2023-12-04T05:02:55;-6.70;99.90
26107;DHT22;13866;50.748;12.630;2023-12-04T05:05:20;-6.60;99.90
26107;DHT22;13866;50.748;12.630;2023-12-04T05:07:45;-6.50;99.90
26107;DHT22;13866;50.748;12.630;2023-12-04T05:10:11;-6.40;99.90
26107;DHT22;13866;50.748;12.630;2023-12-04T05:12:36;-6.40;99.90
26107;DHT22;13866;50.748;12.630;2023-12-04T05:15:02;-6.40;99.90
26107;DHT22;13866;50.748;12.630;2023-12-04T05:17:27;-6.50;99.90
26107;DHT22;13866;50.748;12.630;2023-12-04T05:19:53;-6.60;99.90
26107;DHT22;13866;50.748;12.630;2023-12-04T05:22:18;-6.60;99.90
26107;DHT22;13866;50.748;12.630;2023-12-04T05:24:44;-6.70;99.90
26107;DHT22;13866;50.748;12.630;2023-12-04T05:27:09;-6.70;99.90
26107;DHT22;13866;50.748;12.630;2023-12-04T05:29:35;-6.80;99.90
26107;DHT22;13866;50.748;12.630;2023-12-04T05:32:00;-6.80;99.90
26107;DHT22;13866;50.748;12.630;2023-12-04T05:34:26;-6.80;99.90
26107;DHT22;13866;50.748;12.630;2023-12-04T05:36:51;-6.70;99.90
26107;DHT22;13866;50.748;12.630;2023-12-04T05:39:17;-6.80;99.90
26107;DHT22;13866;50.748;12.630;2023-12-04T05:41:42;-6.70;99.90
26107;DHT22;13866;50.748;12.630;2023-12-04T05:44:07;-6.80;99.90
26107;DHT22;13866;50.748;12.630;2023-12-04T05:46:33;-6.80;99.90
26107;DHT22;13866;50.748;12.630;2023-12-04T05:48:58;-6.90;99.90
26107;DHT22;13866;50.748;12.630;2023-12-04T05:51:24;-6.90;99.90
26107;DHT22;13866;50.748;12.630;2023-12-04T05:53:49;-6.90;99.90
26107;DHT22;13866;50.748;12.630;2023-12-04T05:56:15;-7.00;99.90
26107;DHT22;13866;50.748;12.630;2023-12-04T05:58:40;-7.10;99.90
26107;DHT22;13866;50.748;12.630;2023-12-04T06:01:06;-7.20;99.90
26107;DHT22;13866;50.748;12.630;2023-12-04T06:03:32;-7.20;99.90
26107;DHT22;13866;50.748;12.630;2023-12-04T06:05:57;-7.20;99.90
26107;DHT22;13866;50.748;12.630;2023-12-04T06:08:23;-7.20;99.90
26107;DHT22;13866;50.748;12.630;2023-12-04T06:10:48;-7.20;99.90
26107;DHT22;13866;50.748;12.630;2023-12-04T06:13:14;-7.20;99.90
26107;DHT22;13866;50.748;12.630;2023-12-04T06:15:39;-7.10;99.90
26107;DHT22;13866;50.748;12.630;2023-12-04T06:18:05;-7.20;99.90
26107;DHT22;13866;50.748;12.630;2023-12-04T06:20:30;-7.20;99.90
26107;DHT22;13866;50.748;12.630;2023-12-04T06:22:56;-7.20;99.90
26107;DHT22;13866;50.748;12.630;2023-12-04T06:25:22;-7.20;99.90
26107;DHT22;13866;50.748;12.630;2023-12-04T06:27:48;-7.10;99.90
26107;DHT22;13866;50.748;12.630;2023-12-04T06:30:14;-7.10;99.90
26107;DHT22;13866;50.748;12.630;2023-12-04T06:32:40;-7.10;99.90
26107;DHT22;13866;50.748;12.630;2023-12-04T06:35:05;-7.10;99.90
26107;DHT22;13866;50.748;12.630;2023-12-04T06:37:31;-7.00;99.90
26107;DHT22;13866;50.748;12.630;2023-12-04T06:40:00;-7.10;99.90
26107;DHT22;13866;50.748;12.630;2023-12-04T06:42:27;-7.20;99.90
26107;DHT22;13866;50.748;12.630;2023-12-04T06:44:53;-7.20;99.90
26107;DHT22;13866;50.748;12.630;2023-12-04T06:47:22;-7.20;99.90
26107;DHT22;13866;50.748;12.630;2023-12-04T06:49:48;-7.10;99.90
26107;DHT22;13866;50.748;12.630;2023-12-04T06:52:14;-7.00;99.90
26107;DHT22;13866;50.748;12.630;2023-12-04T06:54:39;-6.90;99.90
26107;DHT22;13866;50.748;12.630;2023-12-04T06:57:05;-6.90;99.90
26107;DHT22;13866;50.748;12.630;2023-12-04T06:59:30;-6.90;99.90
26107;DHT22;13866;50.748;12.630;2023-12-04T07:01:56;-6.80;99.90
26107;DHT22;13866;50.748;12.630;2023-12-04T07:04:21;-6.80;99.90
26107;DHT22;13866;50.748;12.630;2023-12-04T07:06:47;-6.90;99.90
26107;DHT22;13866;50.748;12.630;2023-12-04T07:09:16;-6.90;99.90
26107;DHT22;13866;50.748;12.630;2023-12-04T07:11:44;-7.00;99.90
26107;DHT22;13866;50.748;12.630;2023-12-04T07:14:10;-7.10;99.90
26107;DHT22;13866;50.748;12.630;2023-12-04T07:16:40;-7.10;99.90
26107;DHT22;13866;50.748;12.630;2023-12-04T07:19:06;-7.00;99.90
26107;DHT22;13866;50.748;12.630;2023-12-04T07:21:31;-6.90;99.90
26107;DHT22;13866;50.748;12.630;2023-12-04T07:23:57;-6.50;99.90
26107;DHT22;13866;50.748;12.630;2023-12-04T07:26:22;-6.50;99.90
26107;DHT22;13866;50.748;12.630;2023-12-04T07:28:48;-6.30;99.90
26107;DHT22;13866;50.748;12.630;2023-12-04T07:31:13;-6.30;99.90
26107;DHT22;13866;50.748;12.630;2023-12-04T07:33:39;-6.30;99.90
26107;DHT22;13866;50.748;12.630;2023-12-04T07:36:04;-6.20;99.90
26107;DHT22;13866;50.748;12.630;2023-12-04T07:38:30;-6.20;99.90
26107;DHT22;13866;50.748;12.630;2023-12-04T07:40:55;-6.20;99.90
26107;DHT22;13866;50.748;12.630;2023-12-04T07:43:21;-6.20;99.90
26107;DHT22;13866;50.748;12.630;2023-12-04T07:45:46;-6.20;99.90
26107;DHT22;13866;50.748;12.630;2023-12-04T07:48:12;-6.10;99.90
26107;DHT22;13866;50.748;12.630;2023-12-04T07:50:38;-6.00;99.90
26107;DHT22;13866;50.748;12.630;2023-12-04T07:53:03;-6.00;99.90
26107;DHT22;13866;50.748;12.630;2023-12-04T07:55:29;-5.80;99.90
26107;DHT22;13866;50.748;12.630;2023-12-04T07:57:54;-5.70;99.90
26107;DHT22;13866;50.748;12.630;2023-12-04T08:00:21;-5.50;99.90
26107;DHT22;13866;50.748;12.630;2023-12-04T08:02:50;-5.50;99.90
26107;DHT22;13866;50.748;12.630;2023-12-04T08:05:16;-5.50;99.90
26107;DHT22;13866;50.748;12.630;2023-12-04T08:07:42;-5.40;99.90
26107;DHT22;13866;50.748;12.630;2023-12-04T08:10:08;-5.30;99.90
26107;DHT22;13866;50.748;12.630;2023-12-04T08:12:34;-5.20;99.90
26107;DHT22;13866;50.748;12.630;2023-12-04T08:14:59;-5.10;99.90
26107;DHT22;13866;50.748;12.630;2023-12-04T08:17:25;-5.00;99.90
26107;DHT22;13866;50.748;12.630;2023-12-04T08:19:50;-4.90;99.90
26107;DHT22;13866;50.748;12.630;2023-12-04T08:22:16;-4.90;99.90
26107;DHT22;13866;50.748;12.630;2023-12-04T08:24:41;-4.70;99.90
26107;DHT22;13866;50.748;12.630;2023-12-04T08:27:07;-4.50;99.90
26107;DHT22;13866;50.748;12.630;2023-12-04T08:29:33;-4.50;99.90
26107;DHT22;13866;50.748;12.630;2023-12-04T08:32:00;-4.40;99.90
26107;DHT22;13866;50.748;12.630;2023-12-04T08:34:25;-4.20;99.90
26107;DHT22;13866;50.748;12.630;2023-12-04T08:36:50;-4.10;99.90
26107;DHT22;13866;50.748;12.630;2023-12-04T08:39:16;-3.90;99.90
26107;DHT22;13866;50.748;12.630;2023-12-04T08:41:45;-3.90;99.90
26107;DHT22;13866;50.748;12.630;2023-12-04T08:44:11;-3.70;99.90
26107;DHT22;13866;50.748;12.630;2023-12-04T08:46:36;-3.70;99.90
26107;DHT22;13866;50.748;12.630;2023-12-04T08:49:02;-3.70;99.90
26107;DHT22;13866;50.748;12.630;2023-12-04T08:51:27;-3.60;99.90
26107;DHT22;13866;50.748;12.630;2023-12-04T08:53:53;-3.60;99.90
26107;DHT22;13866;50.748;12.630;2023-12-04T08:56:18;-3.60;99.90
26107;DHT22;13866;50.748;12.630;2023-12-04T08:58:44;-3.50;99.90
26107;DHT22;13866;50.748;12.630;2023-12-04T09:01:09;-3.40;99.90
26107;DHT22;13866;50.748;12.630;2023-12-04T09:03:36;-3.30;99.90
26107;DHT22;13866;50.748;12.630;2023-12-04T09:06:01;-3.20;99.90
26107;DHT22;13866;50.748;12.630;2023-12-04T09:08:27;-3.10;99.90
26107;DHT22;13866;50.748;12.630;2023-12-04T09:10:52;-2.80;99.90
26107;DHT22;13866;50.748;12.630;2023-12-04T09:13:18;-2.60;99.90
26107;DHT22;13866;50.748;12.630;2023-12-04T09:15:43;-2.40;99.90
26107;DHT22;13866;50.748;12.630;2023-12-04T09:18:09;-2.20;99.90
26107;DHT22;13866;50.748;12.630;2023-12-04T09:20:34;-2.00;99.90
26107;DHT22;13866;50.748;12.630;2023-12-04T09:23:01;-1.80;99.90
26107;DHT22;13866;50.748;12.630;2023-12-04T09:25:27;-1.60;99.90
26107;DHT22;13866;50.748;12.630;2023-12-04T09:27:52;-1.40;99.90
26107;DHT22;13866;50.748;12.630;2023-12-04T09:30:18;-1.10;99.90
26107;DHT22;13866;50.748;12.630;2023-12-04T09:32:44;-1.00;99.90
26107;DHT22;13866;50.748;12.630;2023-12-04T09:35:10;-0.80;99.90
26107;DHT22;13866;50.748;12.630;2023-12-04T09:37:35;-0.60;99.90
26107;DHT22;13866;50.748;12.630;2023-12-04T09:40:01;-0.50;99.90
26107;DHT22;13866;50.748;12.630;2023-12-04T09:42:29;-0.40;99.90
26107;DHT22;13866;50.748;12.630;2023-12-04T09:44:54;-0.50;99.90
26107;DHT22;13866;50.748;12.630;2023-12-04T09:47:21;-0.50;99.90
26107;DHT22;13866;50.748;12.630;2023-12-04T09:49:51;-0.60;99.90
26107;DHT22;13866;50.748;12.630;2023-12-04T09:52:17;-0.60;99.90
26107;DHT22;13866;50.748;12.630;2023-12-04T09:54:44;-0.70;99.90
26107;DHT22;13866;50.748;12.630;2023-12-04T09:57:10;-0.70;99.90
26107;DHT22;13866;50.748;12.630;2023-12-04T09:59:36;-0.70;99.90
26107;DHT22;13866;50.748;12.630;2023-12-04T10:02:01;-0.70;99.90
26107;DHT22;13866;50.748;12.630;2023-12-04T10:04:27;-0.60;99.90
26107;DHT22;13866;50.748;12.630;2023-12-04T10:06:53;-0.60;99.90
26107;DHT22;13866;50.748;12.630;2023-12-04T10:09:19;-0.50;99.90
26107;DHT22;13866;50.748;12.630;2023-12-04T10:11:45;-0.40;98.10
26107;DHT22;13866;50.748;12.630;2023-12-04T10:14:20;-0.30;99.30
26107;DHT22;13866;50.748;12.630;2023-12-04T10:16:47;-0.30;99.90
26107;DHT22;13866;50.748;12.630;2023-12-04T10:19:18;-0.20;98.80
26107;DHT22;13866;50.748;12.630;2023-12-04T10:21:48;-0.20;98.60
26107;DHT22;13866;50.748;12.630;2023-12-04T10:26:53;-0.30;57.50
26107;DHT22;13866;50.748;12.630;2023-12-04T10:29:18;-0.10;41.50
26107;DHT22;13866;50.748;12.630;2023-12-04T10:31:44;0.00;21.20
26107;DHT22;13866;50.748;12.630;2023-12-04T10:34:09;0.10;1.00
26107;DHT22;13866;50.748;12.630;2023-12-04T10:36:36;0.20;1.00
26107;DHT22;13866;50.748;12.630;2023-12-04T10:39:02;0.40;1.00
26107;DHT22;13866;50.748;12.630;2023-12-04T10:41:30;0.60;1.00
26107;DHT22;13866;50.748;12.630;2023-12-04T10:43:56;0.80;1.00
26107;DHT22;13866;50.748;12.630;2023-12-04T10:46:24;0.90;1.00
26107;DHT22;13866;50.748;12.630;2023-12-04T10:48:50;0.90;1.00
26107;DHT22;13866;50.748;12.630;2023-12-04T10:51:17;1.00;1.00
26107;DHT22;13866;50.748;12.630;2023-12-04T10:53:43;1.10;1.00
26107;DHT22;13866;50.748;12.630;2023-12-04T10:56:10;1.10;1.00
26107;DHT22;13866;50.748;12.630;2023-12-04T10:58:39;1.10;1.00
26107;DHT22;13866;50.748;12.630;2023-12-04T11:01:07;1.10;1.00
26107;DHT22;13866;50.748;12.630;2023-12-04T11:04:00;1.20;1.00
26107;DHT22;13866;50.748;12.630;2023-12-04T11:06:29;1.30;1.00
26107;DHT22;13866;50.748;12.630;2023-12-04T11:08:56;1.40;1.00
26107;DHT22;13866;50.748;12.630;2023-12-04T11:11:35;1.50;1.00
26107;DHT22;13866;50.748;12.630;2023-12-04T11:14:02;1.70;1.00
26107;DHT22;13866;50.748;12.630;2023-12-04T11:16:47;1.80;1.00
26107;DHT22;13866;50.748;12.630;2023-12-04T11:21:44;2.10;1.00
26107;DHT22;13866;50.748;12.630;2023-12-04T11:24:11;2.10;1.00
26107;DHT22;13866;50.748;12.630;2023-12-04T11:26:37;2.20;1.00
26107;DHT22;13866;50.748;12.630;2023-12-04T11:29:03;2.40;1.00
26107;DHT22;13866;50.748;12.630;2023-12-04T11:31:29;2.10;1.00
26107;DHT22;13866;50.748;12.630;2023-12-04T11:34:01;2.10;1.00
26107;DHT22;13866;50.748;12.630;2023-12-04T11:36:27;2.20;1.00
26107;DHT22;13866;50.748;12.630;2023-12-04T11:38:53;2.20;1.00
26107;DHT22;13866;50.748;12.630;2023-12-04T11:41:20;2.30;1.00
26107;DHT22;13866;50.748;12.630;2023-12-04T11:43:46;2.00;1.00
26107;DHT22;13866;50.748;12.630;2023-12-04T11:46:28;2.10;1.00
26107;DHT22;13866;50.748;12.630;2023-12-04T11:48:55;2.20;1.00
26107;DHT22;13866;50.748;12.630;2023-12-04T11:54:07;2.10;1.00
26107;DHT22;13866;50.748;12.630;2023-12-04T11:56:33;2.00;1.00
26107;DHT22;13866;50.748;12.630;2023-12-04T11:59:06;1.80;1.00
26107;DHT22;13866;50.748;12.630;2023-12-04T12:01:38;1.80;1.00
26107;DHT22;13866;50.748;12.630;2023-12-04T12:04:05;1.80;1.00
26107;DHT22;13866;50.748;12.630;2023-12-04T12:06:31;1.60;1.00
26107;DHT22;13866;50.748;12.630;2023-12-04T12:08:56;1.50;1.00
26107;DHT22;13866;50.748;12.630;2023-12-04T12:11:23;1.40;1.00
26107;DHT22;13866;50.748;12.630;2023-12-04T12:13:49;1.30;1.00
26107;DHT22;13866;50.748;12.630;2023-12-04T12:16:14;1.30;1.00
26107;DHT22;13866;50.748;12.630;2023-12-04T12:18:40;1.20;1.00
26107;DHT22;13866;50.748;12.630;2023-12-04T12:21:07;1.20;1.00
26107;DHT22;13866;50.748;12.630;2023-12-04T12:23:33;1.20;1.00
26107;DHT22;13866;50.748;12.630;2023-12-04T12:25:59;1.20;1.00
26107;DHT22;13866;50.748;12.630;2023-12-04T12:28:25;1.20;1.00
26107;DHT22;13866;50.748;12.630;2023-12-04T12:30:50;1.20;1.00
26107;DHT22;13866;50.748;12.630;2023-12-04T12:33:19;1.20;1.00
26107;DHT22;13866;50.748;12.630;2023-12-04T12:35:46;1.10;1.00
26107;DHT22;13866;50.748;12.630;2023-12-04T12:38:11;1.20;1.00
26107;DHT22;13866;50.748;12.630;2023-12-04T12:40:37;1.20;1.00
26107;DHT22;13866;50.748;12.630;2023-12-04T12:43:04;1.30;1.00
26107;DHT22;13866;50.748;12.630;2023-12-04T12:45:44;1.20;1.00
26107;DHT22;13866;50.748;12.630;2023-12-04T12:48:13;1.10;1.00
26107;DHT22;13866;50.748;12.630;2023-12-04T12:50:39;1.00;1.00
26107;DHT22;13866;50.748;12.630;2023-12-04T12:53:05;0.90;1.00
26107;DHT22;13866;50.748;12.630;2023-12-04T12:55:30;0.90;1.00
26107;DHT22;13866;50.748;12.630;2023-12-04T12:57:56;1.00;1.00
26107;DHT22;13866;50.748;12.630;2023-12-04T13:00:22;1.00;1.00
26107;DHT22;13866;50.748;12.630;2023-12-04T13:02:48;1.00;1.00
26107;DHT22;13866;50.748;12.630;2023-12-04T13:05:17;1.00;1.00
26107;DHT22;13866;50.748;12.630;2023-12-04T13:07:45;1.00;1.00
26107;DHT22;13866;50.748;12.630;2023-12-04T13:10:10;0.90;1.00
26107;DHT22;13866;50.748;12.630;2023-12-04T13:12:36;0.90;1.00
26107;DHT22;13866;50.748;12.630;2023-12-04T13:15:02;0.90;1.00
26107;DHT22;13866;50.748;12.630;2023-12-04T13:17:28;1.00;1.00
26107;DHT22;13866;50.748;12.630;2023-12-04T13:19:54;1.00;1.00
26107;DHT22;13866;50.748;12.630;2023-12-04T13:22:19;1.00;1.00
26107;DHT22;13866;50.748;12.630;2023-12-04T13:24:45;0.90;1.00
26107;DHT22;13866;50.748;12.630;2023-12-04T13:27:10;0.90;1.00
26107;DHT22;13866;50.748;12.630;2023-12-04T13:29:36;0.80;1.00
26107;DHT22;13866;50.748;12.630;2023-12-04T13:32:02;0.80;1.00
26107;DHT22;13866;50.748;12.630;2023-12-04T13:34:27;0.80;1.00
26107;DHT22;13866;50.748;12.630;2023-12-04T13:36:53;0.80;1.00
26107;DHT22;13866;50.748;12.630;2023-12-04T13:39:19;0.80;1.00
26107;DHT22;13866;50.748;12.630;2023-12-04T13:41:52;0.60;1.00
26107;DHT22;13866;50.748;12.630;2023-12-04T13:44:36;0.60;1.00
26107;DHT22;13866;50.748;12.630;2023-12-04T13:47:03;0.60;1.00
26107;DHT22;13866;50.748;12.630;2023-12-04T13:49:28;0.60;1.00
26107;DHT22;13866;50.748;12.630;2023-12-04T13:51:54;0.50;1.00
26107;DHT22;13866;50.748;12.630;2023-12-04T13:54:21;0.50;1.20
26107;DHT22;13866;50.748;12.630;2023-12-04T13:56:50;0.50;2.50
26107;DHT22;13866;50.748;12.630;2023-12-04T13:59:22;0.50;4.10
26107;DHT22;13866;50.748;12.630;2023-12-04T14:01:48;0.40;5.70
26107;DHT22;13866;50.748;12.630;2023-12-04T14:04:18;0.40;8.30
26107;DHT22;13866;50.748;12.630;2023-12-04T14:06:43;0.30;3.60
26107;DHT22;13866;50.748;12.630;2023-12-04T14:09:10;0.30;6.30
26107;DHT22;13866;50.748;12.630;2023-12-04T14:11:39;0.30;9.30
26107;DHT22;13866;50.748;12.630;2023-12-04T14:14:05;0.20;9.80
26107;DHT22;13866;50.748;12.630;2023-12-04T14:16:31;0.20;4.90
26107;DHT22;13866;50.748;12.630;2023-12-04T14:18:56;0.10;4.40
26107;DHT22;13866;50.748;12.630;2023-12-04T14:21:22;0.20;11.10
26107;DHT22;13866;50.748;12.630;2023-12-04T14:23:48;0.20;5.40
26107;DHT22;13866;50.748;12.630;2023-12-04T14:26:14;0.20;1.20
26107;DHT22;13866;50.748;12.630;2023-12-04T14:28:39;0.20;1.00
26107;DHT22;13866;50.748;12.630;2023-12-04T14:31:05;0.10;2.90
26107;DHT22;13866;50.748;12.630;2023-12-04T14:33:32;0.00;3.20
26107;DHT22;13866;50.748;12.630;2023-12-04T14:35:58;0.00;6.50
26107;DHT22;13866;50.748;12.630;2023-12-04T14:38:23;-0.10;9.20
26107;DHT22;13866;50.748;12.630;2023-12-04T14:40:49;-0.20;10.70
26107;DHT22;13866;50.748;12.630;2023-12-04T14:43:15;-0.20;12.70
26107;DHT22;13866;50.748;12.630;2023-12-04T14:45:40;-0.30;15.80
26107;DHT22;13866;50.748;12.630;2023-12-04T14:48:06;-0.30;21.80
26107;DHT22;13866;50.748;12.630;2023-12-04T14:50:34;-0.30;30.80
26107;DHT22;13866;50.748;12.630;2023-12-04T14:53:01;-0.30;45.90
26107;DHT22;13866;50.748;12.630;2023-12-04T14:55:42;-0.20;48.10
26107;DHT22;13866;50.748;12.630;2023-12-04T14:58:10;-0.10;56.20
26107;DHT22;13866;50.748;12.630;2023-12-04T15:01:02;-0.20;44.10
26107;DHT22;13866;50.748;12.630;2023-12-04T15:03:46;-0.20;50.50
26107;DHT22;13866;50.748;12.630;2023-12-04T15:06:14;-0.20;50.20
26107;DHT22;13866;50.748;12.630;2023-12-04T15:08:59;-0.20;60.90
26107;DHT22;13866;50.748;12.630;2023-12-04T15:12:00;-0.30;61.00
26107;DHT22;13866;50.748;12.630;2023-12-04T15:14:37;-0.40;57.40
26107;DHT22;13866;50.748;12.630;2023-12-04T15:17:19;-0.50;63.50
26107;DHT22;13866;50.748;12.630;2023-12-04T15:19:53;-0.60;71.70
26107;DHT22;13866;50.748;12.630;2023-12-04T15:22:25;-0.70;75.10
26107;DHT22;13866;50.748;12.630;2023-12-04T15:24:51;-0.80;78.30
26107;DHT22;13866;50.748;12.630;2023-12-04T15:27:17;-0.80;83.30